sensor_id;sensor_type;location;lat;lon;timestamp;temperature;humidity
31765;DHT22;18338;53.240;8.798;2022-11-15T00:01:16;6.00;99.90
31765;DHT22;18338;53.240;8.798;2022-11-15T00:03:45;5.90;99.90
31765;DHT22;18338;53.240;8.798;2022-11-15T00:06:13;5.90;99.90
31765;DHT22;18338;53.240;8.798;2022-11-15T00:08:40;5.90;99.90
31765;DHT22;18338;53.240;8.798;2022-11-15T00:11:08;5.90;99.90
31765;DHT22;18338;53.240;8.798;2022-11-15T00:13:36;5.80;99.90
31765;DHT22;18338;53.240;8.798;2022-11-15T00:16:03;5.70;99.90
31765;DHT22;18338;53.240;8.798;2022-11-15T00:18:33;5.60;99.90
31765;DHT22;18338;53.240;8.798;2022-11-15T00:21:06;5.60;99.90
31765;DHT22;18338;53.240;8.798;2022-11-15T00:23:36;5.50;99.90
31765;DHT22;18338;53.240;8.798;2022-11-15T00:26:04;5.30;99.90
31765;DHT22;18338;53.240;8.798;2022-11-15T00:28:31;5.10;99.90
31765;DHT22;18338;53.240;8.798;2022-11-15T00:31:02;5.10;99.90
31765;DHT22;18338;53.240;8.798;2022-11-15T00:33:30;5.00;99.90
31765;DHT22;18338;53.240;8.798;2022-11-15T00:36:06;5.10;99.90
31765;DHT22;18338;53.240;8.798;2022-11-15T00:38:38;5.20;99.90
31765;DHT22;18338;53.240;8.798;2022-11-15T00:41:09;5.20;99.90
31765;DHT22;18338;53.240;8.798;2022-11-15T00:43:36;5.10;99.90
31765;DHT22;18338;53.240;8.798;2022-11-15T00:46:03;5.10;99.90
31765;DHT22;18338;53.240;8.798;2022-11-15T00:48:31;5.20;99.90
31765;DHT22;18338;53.240;8.798;2022-11-15T00:51:00;5.20;99.90
31765;DHT22;18338;53.240;8.798;2022-11-15T00:53:27;5.10;99.90
31765;DHT22;18338;53.240;8.798;2022-11-15T00:55:56;4.90;99.90
31765;DHT22;18338;53.240;8.798;2022-11-15T00:58:23;4.80;99.90
31765;DHT22;18338;53.240;8.798;2022-11-15T01:00:50;4.90;99.90
31765;DHT22;18338;53.240;8.798;2022-11-15T01:03:21;4.90;99.90
31765;DHT22;18338;53.240;8.798;2022-11-15T01:05:49;5.00;99.90
31765;DHT22;18338;53.240;8.798;2022-11-15T01:08:16;5.10;99.90
31765;DHT22;18338;53.240;8.798;2022-11-15T01:10:43;5.10;99.90
31765;DHT22;18338;53.240;8.798;2022-11-15T01:13:10;5.20;99.90
31765;DHT22;18338;53.240;8.798;2022-11-15T01:15:41;5.20;99.90
31765;DHT22;18338;53.240;8.798;2022-11-15T01:18:08;5.20;99.90
31765;DHT22;18338;53.240;8.798;2022-11-15T01:20:42;5.10;99.90
31765;DHT22;18338;53.240;8.798;2022-11-15T01:23:09;5.10;99.90
31765;DHT22;18338;53.240;8.798;2022-11-15T01:25:36;5.10;99.90
31765;DHT22;18338;53.240;8.798;2022-11-15T01:28:03;5.10;99.90
31765;DHT22;18338;53.240;8.798;2022-11-15T01:30:29;5.20;99.90
31765;DHT22;18338;53.240;8.798;2022-11-15T01:32:56;5.10;99.90
31765;DHT22;18338;53.240;8.798;2022-11-15T01:35:23;5.10;99.90
31765;DHT22;18338;53.240;8.798;2022-11-15T01:37:50;5.10;99.90
31765;DHT22;18338;53.240;8.798;2022-11-15T01:40:16;5.10;99.90
31765;DHT22;18338;53.240;8.798;2022-11-15T01:42:43;5.00;99.90
31765;DHT22;18338;53.240;8.798;2022-11-15T01:45:16;4.90;99.90
31765;DHT22;18338;53.240;8.798;2022-11-15T01:47:47;4.90;99.90
31765;DHT22;18338;53.240;8.798;2022-11-15T01:50:21;4.80;99.90
31765;DHT22;18338;53.240;8.798;2022-11-15T01:52:48;4.80;99.90
31765;DHT22;18338;53.240;8.798;2022-11-15T01:55:25;4.70;99.90
31765;DHT22;18338;53.240;8.798;2022-11-15T01:57:58;4.60;99.90
31765;DHT22;18338;53.240;8.798;2022-11-15T02:00:26;4.60;99.90
31765;DHT22;18338;53.240;8.798;2022-11-15T02:02:53;4.40;99.90
31765;DHT22;18338;53.240;8.798;2022-11-15T02:05:20;4.40;99.90
31765;DHT22;18338;53.240;8.798;2022-11-15T02:07:47;4.30;99.90
31765;DHT22;18338;53.240;8.798;2022-11-15T02:10:19;4.30;99.90
31765;DHT22;18338;53.240;8.798;2022-11-15T02:12:46;4.20;99.90
31765;DHT22;18338;53.240;8.798;2022-11-15T02:15:14;4.20;99.90
31765;DHT22;18338;53.240;8.798;2022-11-15T02:17:56;4.40;99.90
31765;DHT22;18338;53.240;8.798;2022-11-15T02:21:01;4.40;99.90
31765;DHT22;18338;53.240;8.798;2022-11-15T02:23:53;4.30;99.90
31765;DHT22;18338;53.240;8.798;2022-11-15T02:32:06;4.40;99.90
31765;DHT22;18338;53.240;8.798;2022-11-15T02:34:58;4.70;99.90
31765;DHT22;18338;53.240;8.798;2022-11-15T02:37:48;5.00;99.90
31765;DHT22;18338;53.240;8.798;2022-11-15T02:40:34;5.30;99.90
31765;DHT22;18338;53.240;8.798;2022-11-15T02:43:11;5.60;99.90
31765;DHT22;18338;53.240;8.798;2022-11-15T02:46:09;5.70;99.90
31765;DHT22;18338;53.240;8.798;2022-11-15T02:48:38;6.00;99.90
31765;DHT22;18338;53.240;8.798;2022-11-15T02:51:05;6.10;99.90
31765;DHT22;18338;53.240;8.798;2022-11-15T02:53:32;6.20;99.90
31765;DHT22;18338;53.240;8.798;2022-11-15T02:56:00;6.20;99.90
31765;DHT22;18338;53.240;8.798;2022-11-15T03:03:52;6.40;99.90
31765;DHT22;18338;53.240;8.798;2022-11-15T03:09:33;6.40;99.90
31765;DHT22;18338;53.240;8.798;2022-11-15T03:15:00;6.50;99.90
31765;DHT22;18338;53.240;8.798;2022-11-15T03:17:29;6.60;99.90
31765;DHT22;18338;53.240;8.798;2022-11-15T03:19:59;6.60;99.90
31765;DHT22;18338;53.240;8.798;2022-11-15T03:22:29;6.70;99.90
31765;DHT22;18338;53.240;8.798;2022-11-15T03:25:00;6.80;99.90
31765;DHT22;18338;53.240;8.798;2022-11-15T03:27:35;6.80;99.90
31765;DHT22;18338;53.240;8.798;2022-11-15T03:30:06;6.90;99.90
31765;DHT22;18338;53.240;8.798;2022-11-15T03:32:45;6.90;99.90
31765;DHT22;18338;53.240;8.798;2022-11-15T03:35:17;7.00;99.90
31765;DHT22;18338;53.240;8.798;2022-11-15T03:40:40;7.10;99.90
31765;DHT22;18338;53.240;8.798;2022-11-15T03:45:54;7.10;99.90
31765;DHT22;18338;53.240;8.798;2022-11-15T03:48:29;7.20;99.90
31765;DHT22;18338;53.240;8.798;2022-11-15T03:50:57;7.20;99.90
31765;DHT22;18338;53.240;8.798;2022-11-15T03:53:24;7.20;99.90
31765;DHT22;18338;53.240;8.798;2022-11-15T03:55:51;7.30;99.90
31765;DHT22;18338;53.240;8.798;2022-11-15T03:58:18;7.30;99.90
31765;DHT22;18338;53.240;8.798;2022-11-15T04:00:47;7.40;99.90
31765;DHT22;18338;53.240;8.798;2022-11-15T04:03:14;7.40;99.90
31765;DHT22;18338;53.240;8.798;2022-11-15T04:05:40;7.40;99.90
31765;DHT22;18338;53.240;8.798;2022-11-15T04:08:07;7.50;99.90
31765;DHT22;18338;53.240;8.798;2022-11-15T04:10:34;7.50;99.90
31765;DHT22;18338;53.240;8.798;2022-11-15T04:13:02;7.60;99.90
31765;DHT22;18338;53.240;8.798;2022-11-15T04:15:29;7.60;99.90
31765;DHT22;18338;53.240;8.798;2022-11-15T04:17:57;7.60;99.90
31765;DHT22;18338;53.240;8.798;2022-11-15T04:20:27;7.60;99.90
31765;DHT22;18338;53.240;8.798;2022-11-15T04:23:20;7.70;99.90
31765;DHT22;18338;53.240;8.798;2022-11-15T04:26:11;7.70;99.90
31765;DHT22;18338;53.240;8.798;2022-11-15T04:28:39;7.70;99.90
31765;DHT22;18338;53.240;8.798;2022-11-15T04:31:24;7.70;99.90
31765;DHT22;18338;53.240;8.798;2022-11-15T04:33:52;7.80;99.90
31765;DHT22;18338;53.240;8.798;2022-11-15T04:36:19;7.80;99.90
31765;DHT22;18338;53.240;8.798;2022-11-15T04:39:05;7.80;99.90
31765;DHT22;18338;53.240;8.798;2022-11-15T04:41:31;7.80;99.90
31765;DHT22;18338;53.240;8.798;2022-11-15T04:43:58;7.90;99.90
31765;DHT22;18338;53.240;8.798;2022-11-15T04:46:25;7.90;99.90
31765;DHT22;18338;53.240;8.798;2022-11-15T04:48:52;8.00;99.90
31765;DHT22;18338;53.240;8.798;2022-11-15T04:51:24;8.00;99.90
31765;DHT22;18338;53.240;8.798;2022-11-15T04:53:51;7.90;99.90
31765;DHT22;18338;53.240;8.798;2022-11-15T04:56:18;8.00;99.90
31765;DHT22;18338;53.240;8.798;2022-11-15T04:58:44;8.00;99.90
31765;DHT22;18338;53.240;8.798;2022-11-15T05:01:13;8.00;99.90
31765;DHT22;18338;53.240;8.798;2022-11-15T05:03:42;8.00;99.90
31765;DHT22;18338;53.240;8.798;2022-11-15T05:06:27;8.00;99.90
31765;DHT22;18338;53.240;8.798;2022-11-15T05:08:55;8.10;99.90
31765;DHT22;18338;53.240;8.798;2022-11-15T05:11:21;8.10;99.90
31765;DHT22;18338;53.240;8.798;2022-11-15T05:13:49;8.10;99.90
31765;DHT22;18338;53.240;8.798;2022-11-15T05:16:16;8.10;99.90
31765;DHT22;18338;53.240;8.798;2022-11-15T05:18:42;8.10;99.90
31765;DHT22;18338;53.240;8.798;2022-11-15T05:21:13;8.20;99.90
31765;DHT22;18338;53.240;8.798;2022-11-15T05:23:42;8.20;99.90
31765;DHT22;18338;53.240;8.798;2022-11-15T05:26:10;8.20;99.90
31765;DHT22;18338;53.240;8.798;2022-11-15T05:28:37;8.20;99.90
31765;DHT22;18338;53.240;8.798;2022-11-15T05:31:15;8.30;99.90
31765;DHT22;18338;53.240;8.798;2022-11-15T05:33:43;8.30;99.90
31765;DHT22;18338;53.240;8.798;2022-11-15T05:38:49;8.30;99.90
31765;DHT22;18338;53.240;8.798;2022-11-15T05:41:19;8.30;99.90
31765;DHT22;18338;53.240;8.798;2022-11-15T05:43:48;8.40;99.90
31765;DHT22;18338;53.240;8.798;2022-11-15T05:46:16;8.40;99.90
31765;DHT22;18338;53.240;8.798;2022-11-15T05:48:47;8.40;99.90
31765;DHT22;18338;53.240;8.798;2022-11-15T05:51:17;8.40;99.90
31765;DHT22;18338;53.240;8.798;2022-11-15T05:53:45;8.40;99.90
31765;DHT22;18338;53.240;8.798;2022-11-15T05:56:13;8.40;99.90
31765;DHT22;18338;53.240;8.798;2022-11-15T05:58:40;8.50;99.90
31765;DHT22;18338;53.240;8.798;2022-11-15T06:01:08;8.40;99.90
31765;DHT22;18338;53.240;8.798;2022-11-15T06:03:35;8.40;99.90
31765;DHT22;18338;53.240;8.798;2022-11-15T06:06:01;8.40;99.90
31765;DHT22;18338;53.240;8.798;2022-11-15T06:08:28;8.40;99.90
31765;DHT22;18338;53.240;8.798;2022-11-15T06:10:55;8.40;99.90
31765;DHT22;18338;53.240;8.798;2022-11-15T06:13:24;8.50;99.90
31765;DHT22;18338;53.240;8.798;2022-11-15T06:15:50;8.50;99.90
31765;DHT22;18338;53.240;8.798;2022-11-15T06:18:17;8.50;99.90
31765;DHT22;18338;53.240;8.798;2022-11-15T06:20:44;8.50;99.90
31765;DHT22;18338;53.240;8.798;2022-11-15T06:23:11;8.60;99.90
31765;DHT22;18338;53.240;8.798;2022-11-15T06:25:38;8.50;99.90
31765;DHT22;18338;53.240;8.798;2022-11-15T06:28:05;8.60;99.90
31765;DHT22;18338;53.240;8.798;2022-11-15T06:30:31;8.70;99.90
31765;DHT22;18338;53.240;8.798;2022-11-15T06:33:00;8.70;99.90
31765;DHT22;18338;53.240;8.798;2022-11-15T06:35:30;8.60;99.90
31765;DHT22;18338;53.240;8.798;2022-11-15T06:38:05;8.50;99.90
31765;DHT22;18338;53.240;8.798;2022-11-15T06:40:34;8.50;99.90
31765;DHT22;18338;53.240;8.798;2022-11-15T06:43:01;8.60;99.90
31765;DHT22;18338;53.240;8.798;2022-11-15T06:45:28;8.70;99.90
31765;DHT22;18338;53.240;8.798;2022-11-15T06:47:58;8.80;99.90
31765;DHT22;18338;53.240;8.798;2022-11-15T06:50:25;8.80;99.90
31765;DHT22;18338;53.240;8.798;2022-11-15T06:52:52;8.90;99.90
31765;DHT22;18338;53.240;8.798;2022-11-15T06:55:18;8.90;99.90
31765;DHT22;18338;53.240;8.798;2022-11-15T06:57:50;8.90;99.90
31765;DHT22;18338;53.240;8.798;2022-11-15T07:00:20;8.90;99.90
31765;DHT22;18338;53.240;8.798;2022-11-15T07:02:48;8.90;99.90
31765;DHT22;18338;53.240;8.798;2022-11-15T07:05:16;8.90;99.90
31765;DHT22;18338;53.240;8.798;2022-11-15T07:07:42;9.00;99.90
31765;DHT22;18338;53.240;8.798;2022-11-15T07:10:09;9.00;99.90
31765;DHT22;18338;53.240;8.798;2022-11-15T07:12:36;9.00;99.90
31765;DHT22;18338;53.240;8.798;2022-11-15T07:15:03;9.00;99.90
31765;DHT22;18338;53.240;8.798;2022-11-15T07:17:29;9.00;99.90
31765;DHT22;18338;53.240;8.798;2022-11-15T07:19:56;9.00;99.90
31765;DHT22;18338;53.240;8.798;2022-11-15T07:22:23;9.10;99.90
31765;DHT22;18338;53.240;8.798;2022-11-15T07:24:49;9.10;99.90
31765;DHT22;18338;53.240;8.798;2022-11-15T07:27:16;9.10;99.90
31765;DHT22;18338;53.240;8.798;2022-11-15T07:29:45;9.00;99.90
31765;DHT22;18338;53.240;8.798;2022-11-15T07:32:12;9.10;99.90
31765;DHT22;18338;53.240;8.798;2022-11-15T07:34:39;9.10;99.90
31765;DHT22;18338;53.240;8.798;2022-11-15T07:37:06;9.20;99.90
31765;DHT22;18338;53.240;8.798;2022-11-15T07:39:32;9.40;99.90
31765;DHT22;18338;53.240;8.798;2022-11-15T07:41:59;9.70;99.90
31765;DHT22;18338;53.240;8.798;2022-11-15T07:44:44;9.90;99.90
31765;DHT22;18338;53.240;8.798;2022-11-15T07:47:13;10.10;99.90
31765;DHT22;18338;53.240;8.798;2022-11-15T07:49:40;10.30;99.90
31765;DHT22;18338;53.240;8.798;2022-11-15T07:52:07;10.40;99.90
31765;DHT22;18338;53.240;8.798;2022-11-15T07:54:33;10.60;99.90
31765;DHT22;18338;53.240;8.798;2022-11-15T07:57:00;10.80;99.90
31765;DHT22;18338;53.240;8.798;2022-11-15T07:59:33;11.10;99.90
31765;DHT22;18338;53.240;8.798;2022-11-15T08:02:01;11.30;99.90
31765;DHT22;18338;53.240;8.798;2022-11-15T08:04:29;11.40;99.90
31765;DHT22;18338;53.240;8.798;2022-11-15T08:06:56;11.50;99.90
31765;DHT22;18338;53.240;8.798;2022-11-15T08:09:25;11.60;99.90
31765;DHT22;18338;53.240;8.798;2022-11-15T08:11:52;11.60;99.90
31765;DHT22;18338;53.240;8.798;2022-11-15T08:14:19;11.70;99.90
31765;DHT22;18338;53.240;8.798;2022-11-15T08:16:47;11.70;99.90
31765;DHT22;18338;53.240;8.798;2022-11-15T08:19:15;11.80;99.90
31765;DHT22;18338;53.240;8.798;2022-11-15T08:21:41;11.80;99.90
31765;DHT22;18338;53.240;8.798;2022-11-15T08:24:10;11.90;99.90
31765;DHT22;18338;53.240;8.798;2022-11-15T08:26:37;11.90;99.90
31765;DHT22;18338;53.240;8.798;2022-11-15T08:29:06;11.90;99.90
31765;DHT22;18338;53.240;8.798;2022-11-15T08:31:35;11.90;99.90
31765;DHT22;18338;53.240;8.798;2022-11-15T08:34:06;11.90;99.90
31765;DHT22;18338;53.240;8.798;2022-11-15T08:36:32;12.00;99.90
31765;DHT22;18338;53.240;8.798;2022-11-15T08:39:11;12.00;99.90
31765;DHT22;18338;53.240;8.798;2022-11-15T08:41:40;11.90;99.90
31765;DHT22;18338;53.240;8.798;2022-11-15T08:44:07;11.90;99.90
31765;DHT22;18338;53.240;8.798;2022-11-15T08:46:33;11.90;99.90
31765;DHT22;18338;53.240;8.798;2022-11-15T08:49:00;11.90;99.90
31765;DHT22;18338;53.240;8.798;2022-11-15T08:51:27;12.00;99.90
31765;DHT22;18338;53.240;8.798;2022-11-15T08:53:53;12.00;99.90
31765;DHT22;18338;53.240;8.798;2022-11-15T08:56:20;12.00;99.90
31765;DHT22;18338;53.240;8.798;2022-11-15T08:58:46;12.00;99.90
31765;DHT22;18338;53.240;8.798;2022-11-15T09:01:16;12.00;99.90
31765;DHT22;18338;53.240;8.798;2022-11-15T09:03:44;12.00;99.90
31765;DHT22;18338;53.240;8.798;2022-11-15T09:06:11;11.90;99.90
31765;DHT22;18338;53.240;8.798;2022-11-15T09:08:39;11.90;99.90
31765;DHT22;18338;53.240;8.798;2022-11-15T09:11:13;11.80;99.90
31765;DHT22;18338;53.240;8.798;2022-11-15T09:13:40;11.80;99.90
31765;DHT22;18338;53.240;8.798;2022-11-15T09:16:08;11.80;99.90
31765;DHT22;18338;53.240;8.798;2022-11-15T09:18:35;11.80;99.90
31765;DHT22;18338;53.240;8.798;2022-11-15T09:21:02;11.80;99.90
31765;DHT22;18338;53.240;8.798;2022-11-15T09:23:29;11.90;99.90
31765;DHT22;18338;53.240;8.798;2022-11-15T09:26:00;12.00;99.90
31765;DHT22;18338;53.240;8.798;2022-11-15T09:28:29;12.20;99.90
31765;DHT22;18338;53.240;8.798;2022-11-15T09:30:58;12.50;99.90
31765;DHT22;18338;53.240;8.798;2022-11-15T09:33:26;12.70;99.90
31765;DHT22;18338;53.240;8.798;2022-11-15T09:35:57;12.80;99.90
31765;DHT22;18338;53.240;8.798;2022-11-15T09:38:26;12.90;99.90
31765;DHT22;18338;53.240;8.798;2022-11-15T09:41:15;13.10;99.90
31765;DHT22;18338;53.240;8.798;2022-11-15T09:44:09;13.30;99.90
31765;DHT22;18338;53.240;8.798;2022-11-15T09:49:15;13.40;99.90
31765;DHT22;18338;53.240;8.798;2022-11-15T09:51:48;13.40;99.90
31765;DHT22;18338;53.240;8.798;2022-11-15T09:54:37;13.40;99.90
31765;DHT22;18338;53.240;8.798;2022-11-15T09:57:47;13.30;99.90
31765;DHT22;18338;53.240;8.798;2022-11-15T10:00:42;13.40;99.90
31765;DHT22;18338;53.240;8.798;2022-11-15T10:03:25;13.30;99.90
31765;DHT22;18338;53.240;8.798;2022-11-15T10:05:55;13.40;99.90
31765;DHT22;18338;53.240;8.798;2022-11-15T10:11:30;13.40;99.90
31765;DHT22;18338;53.240;8.798;2022-11-15T10:14:15;13.60;99.90
31765;DHT22;18338;53.240;8.798;2022-11-15T10:27:59;16.70;99.90
31765;DHT22;18338;53.240;8.798;2022-11-15T10:30:33;16.40;99.90
31765;DHT22;18338;53.240;8.798;2022-11-15T10:33:12;17.30;99.90
31765;DHT22;18338;53.240;8.798;2022-11-15T10:35:40;17.00;99.90
31765;DHT22;18338;53.240;8.798;2022-11-15T10:38:10;16.50;99.90
31765;DHT22;18338;53.240;8.798;2022-11-15T10:40:38;16.10;99.90
31765;DHT22;18338;53.240;8.798;2022-11-15T10:43:18;15.60;99.90
31765;DHT22;18338;53.240;8.798;2022-11-15T10:45:46;15.30;99.90
31765;DHT22;18338;53.240;8.798;2022-11-15T10:48:19;15.00;99.90
31765;DHT22;18338;53.240;8.798;2022-11-15T10:50:48;15.00;99.90
31765;DHT22;18338;53.240;8.798;2022-11-15T10:53:37;15.00;99.90
31765;DHT22;18338;53.240;8.798;2022-11-15T10:56:14;15.20;99.90
31765;DHT22;18338;53.240;8.798;2022-11-15T10:58:54;15.70;99.90
31765;DHT22;18338;53.240;8.798;2022-11-15T11:01:23;15.70;99.90
31765;DHT22;18338;53.240;8.798;2022-11-15T11:04:05;15.90;99.90
31765;DHT22;18338;53.240;8.798;2022-11-15T11:06:57;16.30;99.90
31765;DHT22;18338;53.240;8.798;2022-11-15T11:09:36;16.60;99.90
31765;DHT22;18338;53.240;8.798;2022-11-15T11:12:05;16.60;99.90
31765;DHT22;18338;53.240;8.798;2022-11-15T11:14:38;16.60;99.90
31765;DHT22;18338;53.240;8.798;2022-11-15T11:17:09;16.70;99.90
31765;DHT22;18338;53.240;8.798;2022-11-15T11:20:07;16.70;99.90
31765;DHT22;18338;53.240;8.798;2022-11-15T11:22:53;17.00;99.90
31765;DHT22;18338;53.240;8.798;2022-11-15T11:25:33;17.00;99.90
31765;DHT22;18338;53.240;8.798;2022-11-15T11:33:43;19.40;99.90
31765;DHT22;18338;53.240;8.798;2022-11-15T11:41:55;17.60;99.90
31765;DHT22;18338;53.240;8.798;2022-11-15T11:44:49;17.40;99.90
31765;DHT22;18338;53.240;8.798;2022-11-15T11:47:24;17.70;99.90
31765;DHT22;18338;53.240;8.798;2022-11-15T11:50:14;18.90;99.90
31765;DHT22;18338;53.240;8.798;2022-11-15T11:55:53;18.30;99.90
31765;DHT22;18338;53.240;8.798;2022-11-15T11:58:43;19.70;99.90
31765;DHT22;18338;53.240;8.798;2022-11-15T12:01:21;22.40;99.90
31765;DHT22;18338;53.240;8.798;2022-11-15T12:03:57;23.00;99.90
31765;DHT22;18338;53.240;8.798;2022-11-15T12:06:48;23.50;99.90
31765;DHT22;18338;53.240;8.798;2022-11-15T12:09:44;24.30;99.90
31765;DHT22;18338;53.240;8.798;2022-11-15T12:15:22;21.40;99.90
31765;DHT22;18338;53.240;8.798;2022-11-15T12:17:50;20.00;99.90
31765;DHT22;18338;53.240;8.798;2022-11-15T12:20:26;19.20;99.90
31765;DHT22;18338;53.240;8.798;2022-11-15T12:23:06;19.00;99.90
31765;DHT22;18338;53.240;8.798;2022-11-15T12:28:48;18.10;99.90
31765;DHT22;18338;53.240;8.798;2022-11-15T12:31:43;17.70;99.90
31765;DHT22;18338;53.240;8.798;2022-11-15T12:36:48;19.30;99.90
31765;DHT22;18338;53.240;8.798;2022-11-15T12:39:16;21.20;99.90
31765;DHT22;18338;53.240;8.798;2022-11-15T12:47:24;22.30;99.90
31765;DHT22;18338;53.240;8.798;2022-11-15T12:49:52;23.70;99.90
31765;DHT22;18338;53.240;8.798;2022-11-15T12:52:19;25.50;99.90
31765;DHT22;18338;53.240;8.798;2022-11-15T12:54:52;25.40;99.90
31765;DHT22;18338;53.240;8.798;2022-11-15T13:03:17;23.20;99.90
31765;DHT22;18338;53.240;8.798;2022-11-15T13:08:36;19.70;99.90
31765;DHT22;18338;53.240;8.798;2022-11-15T13:14:40;18.20;99.90
31765;DHT22;18338;53.240;8.798;2022-11-15T13:17:22;18.80;99.90
31765;DHT22;18338;53.240;8.798;2022-11-15T13:22:49;19.30;99.90
31765;DHT22;18338;53.240;8.798;2022-11-15T13:25:48;18.60;99.90
31765;DHT22;18338;53.240;8.798;2022-11-15T13:28:38;18.00;99.90
31765;DHT22;18338;53.240;8.798;2022-11-15T13:33:57;18.70;99.90
31765;DHT22;18338;53.240;8.798;2022-11-15T13:36:28;18.60;99.90
31765;DHT22;18338;53.240;8.798;2022-11-15T13:39:05;18.80;99.90
31765;DHT22;18338;53.240;8.798;2022-11-15T13:41:49;19.90;99.90
31765;DHT22;18338;53.240;8.798;2022-11-15T13:44:27;20.00;99.90
31765;DHT22;18338;53.240;8.798;2022-11-15T13:47:13;19.80;99.90
31765;DHT22;18338;53.240;8.798;2022-11-15T13:49:41;19.30;99.90
31765;DHT22;18338;53.240;8.798;2022-11-15T13:52:12;18.80;99.90
31765;DHT22;18338;53.240;8.798;2022-11-15T13:54:53;18.60;99.90
31765;DHT22;18338;53.240;8.798;2022-11-15T13:57:27;18.50;99.90
31765;DHT22;18338;53.240;8.798;2022-11-15T13:59:59;18.20;99.90
31765;DHT22;18338;53.240;8.798;2022-11-15T14:02:31;18.30;99.90
31765;DHT22;18338;53.240;8.798;2022-11-15T14:05:18;19.80;99.90
31765;DHT22;18338;53.240;8.798;2022-11-15T14:08:00;21.70;99.90
31765;DHT22;18338;53.240;8.798;2022-11-15T14:10:33;23.00;99.90
31765;DHT22;18338;53.240;8.798;2022-11-15T14:13:01;23.00;99.90
31765;DHT22;18338;53.240;8.798;2022-11-15T14:15:36;24.10;99.90
31765;DHT22;18338;53.240;8.798;2022-11-15T14:18:04;25.30;99.90
31765;DHT22;18338;53.240;8.798;2022-11-15T14:20:37;25.10;99.90
31765;DHT22;18338;53.240;8.798;2022-11-15T14:23:18;23.60;99.90
31765;DHT22;18338;53.240;8.798;2022-11-15T14:25:57;22.70;99.90
31765;DHT22;18338;53.240;8.798;2022-11-15T14:30:53;20.80;99.90
31765;DHT22;18338;53.240;8.798;2022-11-15T14:36:20;20.40;99.90
31765;DHT22;18338;53.240;8.798;2022-11-15T14:38:47;19.90;99.90
31765;DHT22;18338;53.240;8.798;2022-11-15T14:41:25;19.40;99.90
31765;DHT22;18338;53.240;8.798;2022-11-15T14:43:53;18.60;99.90
31765;DHT22;18338;53.240;8.798;2022-11-15T14:46:20;18.00;99.90
31765;DHT22;18338;53.240;8.798;2022-11-15T14:48:47;17.40;99.90
31765;DHT22;18338;53.240;8.798;2022-11-15T14:51:16;16.80;99.90
31765;DHT22;18338;53.240;8.798;2022-11-15T14:53:44;16.20;99.90
31765;DHT22;18338;53.240;8.798;2022-11-15T14:56:12;15.70;99.90
31765;DHT22;18338;53.240;8.798;2022-11-15T14:58:39;15.30;99.90
31765;DHT22;18338;53.240;8.798;2022-11-15T15:01:26;14.90;99.90
31765;DHT22;18338;53.240;8.798;2022-11-15T15:04:08;14.50;99.90
31765;DHT22;18338;53.240;8.798;2022-11-15T15:07:00;14.10;99.90
31765;DHT22;18338;53.240;8.798;2022-11-15T15:09:27;13.70;99.90
31765;DHT22;18338;53.240;8.798;2022-11-15T15:11:54;13.30;99.90
31765;DHT22;18338;53.240;8.798;2022-11-15T15:14:21;13.00;99.90
31765;DHT22;18338;53.240;8.798;2022-11-15T15:16:47;12.80;99.90
31765;DHT22;18338;53.240;8.798;2022-11-15T15:19:14;12.50;99.90
31765;DHT22;18338;53.240;8.798;2022-11-15T15:21:40;12.20;99.90
31765;DHT22;18338;53.240;8.798;2022-11-15T15:24:13;12.00;99.90
31765;DHT22;18338;53.240;8.798;2022-11-15T15:26:41;11.80;99.90
31765;DHT22;18338;53.240;8.798;2022-11-15T15:29:09;11.60;99.90
31765;DHT22;18338;53.240;8.798;2022-11-15T15:31:36;11.50;99.90
31765;DHT22;18338;53.240;8.798;2022-11-15T15:34:03;11.40;99.90
31765;DHT22;18338;53.240;8.798;2022-11-15T15:36:30;11.40;99.90
31765;DHT22;18338;53.240;8.798;2022-11-15T15:38:57;11.30;99.90
31765;DHT22;18338;53.240;8.798;2022-11-15T15:41:24;11.20;99.90
31765;DHT22;18338;53.240;8.798;2022-11-15T15:43:51;11.00;99.90
31765;DHT22;18338;53.240;8.798;2022-11-15T15:46:19;10.80;99.90
31765;DHT22;18338;53.240;8.798;2022-11-15T15:48:46;10.60;99.90
31765;DHT22;18338;53.240;8.798;2022-11-15T15:51:13;10.40;99.90
31765;DHT22;18338;53.240;8.798;2022-11-15T15:53:46;10.30;99.90
31765;DHT22;18338;53.240;8.798;2022-11-15T15:56:13;10.20;99.90
31765;DHT22;18338;53.240;8.798;2022-11-15T15:58:40;10.10;99.90
31765;DHT22;18338;53.240;8.798;2022-11-15T16:01:07;9.90;99.90
31765;DHT22;18338;53.240;8.798;2022-11-15T16:03:34;9.80;99.90
31765;DHT22;18338;53.240;8.798;2022-11-15T16:06:00;9.70;99.90
31765;DHT22;18338;53.240;8.798;2022-11-15T16:08:31;9.60;99.90
31765;DHT22;18338;53.240;8.798;2022-11-15T16:11:17;9.50;99.90
31765;DHT22;18338;53.240;8.798;2022-11-15T16:13:44;9.50;99.90
31765;DHT22;18338;53.240;8.798;2022-11-15T16:16:13;9.40;99.90
31765;DHT22;18338;53.240;8.798;2022-11-15T16:18:40;9.30;99.90
31765;DHT22;18338;53.240;8.798;2022-11-15T16:21:07;9.30;99.90
31765;DHT22;18338;53.240;8.798;2022-11-15T16:23:34;9.20;99.90
31765;DHT22;18338;53.240;8.798;2022-11-15T16:26:01;9.20;99.90
31765;DHT22;18338;53.240;8.798;2022-11-15T16:28:32;9.20;99.90
31765;DHT22;18338;53.240;8.798;2022-11-15T16:31:09;9.10;99.90
31765;DHT22;18338;53.240;8.798;2022-11-15T16:33:37;9.10;99.90
31765;DHT22;18338;53.240;8.798;2022-11-15T16:36:05;9.10;99.90
31765;DHT22;18338;53.240;8.798;2022-11-15T16:38:32;9.10;99.90
31765;DHT22;18338;53.240;8.798;2022-11-15T16:41:00;9.00;99.90
31765;DHT22;18338;53.240;8.798;2022-11-15T16:43:26;9.10;99.90
31765;DHT22;18338;53.240;8.798;2022-11-15T16:45:54;9.20;99.90
31765;DHT22;18338;53.240;8.798;2022-11-15T16:48:26;9.20;99.90
31765;DHT22;18338;53.240;8.798;2022-11-15T16:50:57;9.30;99.90
31765;DHT22;18338;53.240;8.798;2022-11-15T16:53:25;9.30;99.90
31765;DHT22;18338;53.240;8.798;2022-11-15T16:55:56;9.20;99.90
31765;DHT22;18338;53.240;8.798;2022-11-15T16:58:23;9.40;99.90
31765;DHT22;18338;53.240;8.798;2022-11-15T17:00:51;9.40;99.90
31765;DHT22;18338;53.240;8.798;2022-11-15T17:03:19;9.50;99.90
31765;DHT22;18338;53.240;8.798;2022-11-15T17:05:46;9.70;99.90
31765;DHT22;18338;53.240;8.798;2022-11-15T17:08:12;9.70;99.90
31765;DHT22;18338;53.240;8.798;2022-11-15T17:10:39;9.80;99.90
31765;DHT22;18338;53.240;8.798;2022-11-15T17:13:13;9.90;99.90
31765;DHT22;18338;53.240;8.798;2022-11-15T17:15:40;9.90;99.90
31765;DHT22;18338;53.240;8.798;2022-11-15T17:18:10;9.90;99.90
31765;DHT22;18338;53.240;8.798;2022-11-15T17:20:38;9.80;99.90
31765;DHT22;18338;53.240;8.798;2022-11-15T17:23:05;9.80;99.90
31765;DHT22;18338;53.240;8.798;2022-11-15T17:25:37;9.80;99.90
31765;DHT22;18338;53.240;8.798;2022-11-15T17:28:04;9.90;99.90
31765;DHT22;18338;53.240;8.798;2022-11-15T17:30:31;9.90;99.90
31765;DHT22;18338;53.240;8.798;2022-11-15T17:32:57;9.90;99.90
31765;DHT22;18338;53.240;8.798;2022-11-15T17:35:24;10.00;99.90
31765;DHT22;18338;53.240;8.798;2022-11-15T17:37:51;10.00;99.90
31765;DHT22;18338;53.240;8.798;2022-11-15T17:40:18;10.00;99.90